オウル の空港の天気 - METARとTAF

オウル空港 ( EFOU / OUL ) - フィンランド Oulunsalo
飛行場実況気象(Metar)
観測時間05/25 13:20 EEST (05/25 10:20 UTC)
風向・風速西北西 5m/s
視程10km以上
天気現象
全天の8割程度の雲 雲底高度 2830m
気温11℃
湿度47%
気圧1006hPa
METAREFOU 251020Z AUTO 30009KT 270V330 9999 BKN093/// 11/00 Q1006
過去の天気等 Google飛行場航空写真 Wunderground天気予報

過去48時間のMETAR

飛行場予報(TAF)
発表時間: 5/25 11:36 EEST (5/25 08:36 UTC)
予報対象時間: 25日12時 EEST ~ 26日12時 EEST
風向・風速西北西 4m/s
視程10km以上
なし
25日21時 EEST から 確率 30% で
視程7,000m
天気現象弱い雨
TAF EFOU 250836Z 2509/2609 30008KT CAVOK
PROB30 2518/2524 7000 -RA